Terminal Aerodrome Forecast
Issued by NWS

Home | Current Version | Previous Version | Text Only | Print | Product List | Glossary On
Versions: 1 2 3 4 5 6 7 8 9 10 11 12 13 14 15 16 17 18 19 20 21 22 23 24 25 26
000
FTUS45 KLKN 042322
TAFWMC
TAF
KWMC 042322Z 0500/0524 21014KT P6SM VCTS BKN100CB
      TEMPO 0500/0502 VRB15G28KT TS SCT080CB OVC100
     FM050200 24010KT P6SM SCT080 BKN120
     FM050400 25005KT P6SM SCT120 BKN200
     FM052200 24010KT P6SM VCTS SCT100CB BKN200
      TEMPO 0522/0524 VRB15G30KT=

USA.gov is the U.S. government's official web portal to all federal, state and local government web resources and services.